Time;durP1;ratioP1;P1;durP2;ratioP2;P2;SDS_P1;SDS_P2;PMS_P1;PMS_P2;Temp;Humidity;BMP_temperature;BMP_pressure;BME280_temperature;BME280_humidity;BME280_pressure;Samples;Min_cycle;Max_cycle;Signal;HPM_P1;HPM_P2
2022/05/13 00:02:22;;;;;;;2.90;2.70;;;15.00;99.90;;;;;;5055228;28;20178;-71
2022/05/13 00:04:47;;;;;;;5.40;2.80;;;15.00;99.90;;;;;;5055050;28;20182;-71
2022/05/13 00:07:13;;;;;;;2.72;2.53;;;14.90;99.90;;;;;;5055154;28;20197;-71
2022/05/13 00:09:59;;;;;;;3.00;2.75;;;14.90;99.90;;;;;;5054926;28;20625;-71
2022/05/13 00:12:27;;;;;;;3.15;2.75;;;14.80;99.90;;;;;;5056303;28;20169;-71
2022/05/13 00:14:54;;;;;;;2.97;2.67;;;14.80;99.90;;;;;;5054726;28;20601;-71
2022/05/13 00:17:21;;;;;;;3.97;2.78;;;14.80;99.90;;;;;;5054927;28;20217;-71
2022/05/13 00:19:47;;;;;;;2.90;2.70;;;14.70;99.90;;;;;;5056719;28;20166;-71
2022/05/13 00:22:13;;;;;;;3.22;2.90;;;14.60;99.90;;;;;;5054954;28;20606;-71
2022/05/13 00:24:39;;;;;;;4.70;2.78;;;14.50;99.90;;;;;;5054579;28;20630;-71
2022/05/13 00:27:06;;;;;;;3.28;2.97;;;14.60;99.90;;;;;;5054776;28;20201;-71
2022/05/13 00:29:31;;;;;;;3.45;3.10;;;14.50;99.90;;;;;;5054471;28;20174;-71
2022/05/13 00:31:57;;;;;;;2.95;2.63;;;14.50;99.90;;;;;;5054450;28;20260;-71
2022/05/13 00:34:22;;;;;;;3.05;2.80;;;14.50;99.90;;;;;;5054351;28;20186;-71
2022/05/13 00:36:48;;;;;;;2.92;2.63;;;14.60;99.90;;;;;;5054318;28;20673;-71
2022/05/13 00:39:14;;;;;;;3.67;2.92;;;14.50;99.90;;;;;;5054265;28;20186;-71
2022/05/13 00:41:40;;;;;;;3.70;2.92;;;14.30;99.90;;;;;;5055043;28;20174;-71
2022/05/13 00:44:06;;;;;;;3.67;2.83;;;14.20;99.90;;;;;;5054159;28;20209;-71
2022/05/13 00:50:01;;;;;;;4.07;3.10;;;14.00;99.90;;;;;;5054458;28;20196;-71
2022/05/13 00:52:27;;;;;;;3.47;2.85;;;13.80;99.90;;;;;;5054629;28;20236;-71
2022/05/13 00:54:54;;;;;;;3.40;3.10;;;13.70;99.90;;;;;;5053900;28;20603;-71
2022/05/13 00:57:21;;;;;;;3.85;3.05;;;13.80;99.90;;;;;;5053832;28;20194;-71
2022/05/13 00:59:50;;;;;;;4.20;2.80;;;13.80;99.90;;;;;;5055354;28;20186;-71
2022/05/13 01:02:16;;;;;;;4.43;3.08;;;13.80;99.90;;;;;;5054354;28;20174;-71
2022/05/13 01:04:42;;;;;;;3.42;3.13;;;13.80;99.90;;;;;;5054023;28;20259;-71
2022/05/13 01:07:19;;;;;;;3.20;2.90;;;13.80;99.90;;;;;;5053665;28;20204;-71
2022/05/13 01:09:56;;;;;;;4.15;3.13;;;13.80;99.90;;;;;;5054933;28;20248;-71
2022/05/13 01:12:26;;;;;;;3.67;2.97;;;13.70;99.90;;;;;;5054910;28;20158;-71
2022/05/13 01:14:58;;;;;;;2.65;2.45;;;13.70;99.90;;;;;;5053624;28;20166;-71
2022/05/13 01:20:14;;;;;;;4.95;3.45;;;13.80;99.90;;;;;;5055258;28;20169;-71
2022/05/13 01:22:47;;;;;;;4.05;2.92;;;13.80;99.90;;;;;;5054888;28;20170;-71
2022/05/13 01:25:19;;;;;;;4.50;2.92;;;13.70;99.90;;;;;;5053473;28;20174;-71
2022/05/13 01:27:46;;;;;;;3.35;2.95;;;13.70;99.90;;;;;;5054196;28;20520;-71
2022/05/13 01:30:16;;;;;;;3.85;2.85;;;13.70;99.90;;;;;;5053409;28;20190;-71
2022/05/13 01:32:42;;;;;;;5.07;3.05;;;13.70;99.90;;;;;;5053528;28;20201;-71
2022/05/13 01:35:08;;;;;;;4.03;3.25;;;13.70;99.90;;;;;;5053970;28;20178;-71
2022/05/13 01:37:35;;;;;;;3.38;2.95;;;13.60;99.90;;;;;;5054176;28;20285;-71
2022/05/13 01:40:03;;;;;;;3.30;2.90;;;13.60;99.90;;;;;;5053019;28;20270;-71
2022/05/13 01:42:30;;;;;;;3.47;2.72;;;13.50;99.90;;;;;;5053354;28;20228;-71
2022/05/13 01:44:56;;;;;;;4.05;2.90;;;13.40;99.90;;;;;;5054246;28;20177;-71
2022/05/13 01:47:23;;;;;;;3.60;3.30;;;13.30;99.90;;;;;;5052893;28;20213;-71
2022/05/13 01:49:49;;;;;;;2.97;2.78;;;13.20;99.90;;;;;;5052903;28;20182;-71
2022/05/13 01:52:14;;;;;;;3.38;2.80;;;13.20;99.90;;;;;;5052924;28;20196;-71
2022/05/13 01:54:40;;;;;;;3.17;2.88;;;13.20;99.90;;;;;;5052876;28;20638;-71
2022/05/13 01:57:06;;;;;;;4.65;2.90;;;13.20;99.90;;;;;;5053947;28;20799;-71
2022/05/13 01:59:32;;;;;;;3.65;3.08;;;13.20;99.90;;;;;;5053137;28;20182;-71
2022/05/13 02:01:57;;;;;;;3.05;2.72;;;13.10;99.90;;;;;;5052571;28;20554;-71
2022/05/13 02:04:23;;;;;;;3.20;2.90;;;13.20;99.90;;;;;;5053849;28;20205;-71
2022/05/13 02:06:48;;;;;;;3.50;3.20;;;13.10;99.90;;;;;;5053704;28;20197;-71
2022/05/13 02:09:14;;;;;;;3.53;3.20;;;12.90;99.90;;;;;;5052674;28;20186;-71
2022/05/13 02:11:39;;;;;;;4.15;3.33;;;12.70;99.90;;;;;;5052822;28;20170;-71
2022/05/13 02:14:06;;;;;;;4.75;3.25;;;12.50;99.90;;;;;;5052538;28;20641;-71
2022/05/13 02:16:31;;;;;;;3.60;3.30;;;12.40;99.90;;;;;;5053279;28;20297;-71
2022/05/13 02:18:57;;;;;;;5.50;3.47;;;12.20;99.90;;;;;;5052929;28;20280;-71
2022/05/13 02:21:24;;;;;;;3.40;3.10;;;12.10;99.90;;;;;;5052321;28;20703;-71
2022/05/13 02:23:50;;;;;;;3.40;3.10;;;12.00;99.90;;;;;;5052381;28;20202;-71
2022/05/13 02:26:17;;;;;;;2.92;2.70;;;12.00;99.90;;;;;;5052347;28;20236;-71
2022/05/13 02:28:44;;;;;;;4.53;2.97;;;12.00;99.90;;;;;;5052263;28;20178;-71
2022/05/13 02:31:11;;;;;;;5.63;3.30;;;12.10;99.90;;;;;;5052990;28;20185;-71
2022/05/13 02:33:36;;;;;;;3.65;3.30;;;12.10;99.90;;;;;;5052362;28;20270;-71
2022/05/13 02:36:03;;;;;;;4.97;3.17;;;12.10;99.90;;;;;;5052824;28;20222;-71
2022/05/13 02:38:29;;;;;;;4.85;3.00;;;12.00;99.90;;;;;;5052169;28;20209;-71
2022/05/13 02:41:12;;;;;;;5.38;3.10;;;12.00;99.90;;;;;;5053303;28;20224;-71
2022/05/13 02:43:50;;;;;;;3.28;2.97;;;12.00;99.90;;;;;;5052927;28;20197;-71
2022/05/13 02:46:23;;;;;;;3.55;3.25;;;11.90;99.90;;;;;;5051979;28;20228;-71
2022/05/13 02:48:49;;;;;;;4.10;3.20;;;11.70;99.90;;;;;;5053443;28;20182;-71
2022/05/13 02:51:16;;;;;;;5.18;2.85;;;11.70;99.90;;;;;;5052614;28;20170;-71
2022/05/13 02:53:42;;;;;;;3.45;3.15;;;11.70;99.90;;;;;;5052047;28;20182;-71
2022/05/13 02:56:07;;;;;;;3.22;3.00;;;11.70;99.90;;;;;;5051892;28;20198;-71
2022/05/13 02:58:35;;;;;;;2.90;2.70;;;11.80;99.90;;;;;;5053103;28;20184;-71
2022/05/13 03:01:02;;;;;;;3.50;3.20;;;11.70;99.90;;;;;;5051993;28;20182;-71
2022/05/13 03:03:29;;;;;;;7.10;3.08;;;11.60;99.90;;;;;;5052098;28;20258;-71
2022/05/13 03:05:56;;;;;;;6.28;3.55;;;11.60;99.90;;;;;;5051757;28;20202;-71
2022/05/13 03:08:21;;;;;;;4.07;3.35;;;11.60;99.90;;;;;;5053367;28;20185;-71
2022/05/13 03:10:47;;;;;;;4.55;2.90;;;11.50;99.90;;;;;;5052994;28;20170;-71
2022/05/13 03:13:13;;;;;;;3.30;2.90;;;11.50;99.90;;;;;;5053874;28;20186;-71
2022/05/13 03:15:39;;;;;;;3.35;3.03;;;11.40;99.90;;;;;;5057250;28;20202;-71
2022/05/13 03:18:05;;;;;;;5.68;3.42;;;11.20;99.90;;;;;;5056198;28;20212;-71
2022/05/13 03:20:31;;;;;;;3.25;3.05;;;11.00;99.90;;;;;;5055741;28;20181;-71
2022/05/13 03:22:56;;;;;;;9.07;3.72;;;11.00;99.90;;;;;;5055990;28;20198;-70
2022/05/13 03:25:22;;;;;;;6.35;3.40;;;11.00;99.90;;;;;;5056515;28;20261;-71
2022/05/13 03:27:48;;;;;;;3.50;3.20;;;11.00;99.90;;;;;;5057145;28;20637;-71
2022/05/13 03:30:17;;;;;;;5.13;3.72;;;11.20;99.90;;;;;;5055576;28;20257;-71
2022/05/13 03:32:43;;;;;;;5.80;2.88;;;11.20;99.90;;;;;;5055537;28;20179;-70
2022/05/13 03:35:11;;;;;;;5.15;3.08;;;11.30;99.90;;;;;;5055528;28;20185;-70
2022/05/13 03:37:37;;;;;;;4.55;2.72;;;11.20;99.90;;;;;;5055368;28;20285;-71
2022/05/13 03:40:03;;;;;;;10.02;3.22;;;11.20;99.90;;;;;;5055360;28;20206;-71
2022/05/13 03:42:29;;;;;;;3.80;2.92;;;11.20;99.90;;;;;;5055369;28;20170;-71
2022/05/13 03:44:55;;;;;;;10.40;3.45;;;11.30;99.90;;;;;;5056494;28;20174;-71
2022/05/13 03:47:21;;;;;;;11.13;3.55;;;11.30;99.90;;;;;;5055543;28;20205;-71
2022/05/13 03:49:47;;;;;;;6.72;3.67;;;11.10;99.90;;;;;;5055299;28;20182;-71
2022/05/13 03:52:13;;;;;;;4.25;3.10;;;11.00;99.90;;;;;;5055189;28;20194;-71
2022/05/13 03:54:38;;;;;;;8.10;3.65;;;11.00;99.90;;;;;;5055528;28;20178;-70
2022/05/13 03:57:06;;;;;;;5.95;3.40;;;11.00;99.90;;;;;;5055317;28;20212;-71
2022/05/13 03:59:32;;;;;;;7.90;3.42;;;11.10;99.90;;;;;;5055880;28;20185;-71
2022/05/13 04:01:58;;;;;;;8.95;3.30;;;10.90;99.90;;;;;;5055834;28;20182;-71
2022/05/13 04:04:24;;;;;;;7.70;3.40;;;10.90;99.90;;;;;;5055115;28;20255;-71
2022/05/13 04:09:35;;;;;;;6.13;3.28;;;11.00;99.90;;;;;;5058706;28;20166;-73
2022/05/13 04:17:30;;;;;;;15.15;4.20;;;11.00;99.90;;;;;;5058084;28;20244;-73
2022/05/13 04:19:56;;;;;;;11.65;3.85;;;10.90;99.90;;;;;;5058769;28;20182;-73
2022/05/13 04:22:24;;;;;;;3.80;3.50;;;10.90;99.90;;;;;;5056684;28;20190;-73
2022/05/13 04:24:53;;;;;;;7.47;3.25;;;10.90;99.90;;;;;;5056165;28;20289;-73
2022/05/13 04:27:19;;;;;;;5.13;3.50;;;11.10;99.90;;;;;;5058143;28;20190;-72
2022/05/13 04:29:45;;;;;;;4.57;3.30;;;11.20;99.90;;;;;;5057113;28;20203;-73
2022/05/13 04:32:10;;;;;;;8.23;3.40;;;11.30;99.90;;;;;;5057844;28;20167;-72
2022/05/13 04:34:36;;;;;;;5.47;3.25;;;11.50;99.90;;;;;;5056458;28;20209;-73
2022/05/13 04:37:02;;;;;;;5.22;3.05;;;11.50;99.90;;;;;;5056930;28;20198;-73
2022/05/13 04:39:28;;;;;;;4.10;3.40;;;11.60;99.90;;;;;;5056136;28;20265;-73
2022/05/13 04:44:39;;;;;;;6.70;3.00;;;11.60;99.90;;;;;;5055754;28;20217;-71
2022/05/13 04:48:15;;;;;;;4.50;3.15;;;11.60;99.90;;;;;;5054605;28;20194;-70
2022/05/13 04:49:52;;;;;;;7.13;3.20;;;11.60;99.90;;;;;;5055263;28;20181;-70
2022/05/13 04:52:17;;;;;;;9.32;3.35;;;11.70;99.90;;;;;;5055156;28;20178;-70
2022/05/13 04:54:43;;;;;;;21.90;4.53;;;11.80;99.90;;;;;;5055382;28;20189;-71
2022/05/13 04:57:09;;;;;;;30.52;5.57;;;11.90;99.90;;;;;;5053978;28;20206;-71
2022/05/13 04:59:34;;;;;;;27.17;7.72;;;12.00;99.90;;;;;;5054243;28;20216;-71
2022/05/13 05:02:00;;;;;;;14.23;4.40;;;12.20;99.90;;;;;;5053904;28;20218;-71
2022/05/13 05:04:25;;;;;;;6.38;3.40;;;12.40;99.90;;;;;;5053849;28;20311;-71
2022/05/13 05:06:51;;;;;;;6.68;3.70;;;12.60;99.90;;;;;;5053949;28;20249;-71
2022/05/13 05:09:16;;;;;;;4.38;3.97;;;12.70;99.90;;;;;;5054447;28;20649;-70
2022/05/13 05:11:42;;;;;;;5.97;4.63;;;12.80;99.90;;;;;;5053623;28;20175;-70
2022/05/13 05:14:08;;;;;;;8.38;4.10;;;12.80;99.90;;;;;;5054807;28;20640;-70
2022/05/13 05:16:33;;;;;;;8.25;3.95;;;12.70;99.90;;;;;;5053920;28;20198;-70
2022/05/13 05:18:59;;;;;;;6.15;4.10;;;12.70;99.90;;;;;;5054151;28;20664;-83
2022/05/13 05:21:25;;;;;;;10.13;3.72;;;12.60;99.90;;;;;;5053902;28;20185;-71
2022/05/13 05:23:52;;;;;;;9.63;4.10;;;12.80;99.90;;;;;;5053423;28;20209;-71
2022/05/13 05:26:18;;;;;;;12.63;4.43;;;12.90;99.90;;;;;;5054916;28;20237;-71
2022/05/13 05:28:44;;;;;;;10.98;3.90;;;12.70;99.90;;;;;;5054000;28;20275;-70
2022/05/13 05:31:13;;;;;;;9.13;4.00;;;12.80;99.90;;;;;;5054527;28;20166;-73
2022/05/13 05:33:40;;;;;;;7.88;4.20;;;12.90;99.90;;;;;;5055022;28;20178;-71
2022/05/13 05:36:06;;;;;;;9.73;4.40;;;13.10;99.90;;;;;;5054797;28;20285;-72
2022/05/13 05:38:32;;;;;;;23.55;4.38;;;13.20;99.90;;;;;;5053520;28;20210;-71
2022/05/13 05:40:59;;;;;;;9.13;4.13;;;13.40;99.90;;;;;;5052945;28;20174;-71
2022/05/13 05:43:25;;;;;;;14.27;4.93;;;13.60;99.90;;;;;;5053140;28;20258;-72
2022/05/13 05:45:51;;;;;;;13.05;4.40;;;13.70;99.90;;;;;;5053414;28;20202;-71
2022/05/13 05:48:24;;;;;;;5.13;3.88;;;13.90;99.90;;;;;;5053006;28;20174;-71
2022/05/13 05:50:52;;;;;;;4.97;3.17;;;14.10;99.90;;;;;;5053223;28;20171;-71
2022/05/13 05:57:13;;;;;;;6.72;4.13;;;14.30;99.90;;;;;;5034142;28;20182;-71
2022/05/13 05:58:50;;;;;;;5.88;3.90;;;14.80;99.90;;;;;;5054291;28;20284;-72
2022/05/13 06:01:16;;;;;;;10.98;4.13;;;15.10;99.90;;;;;;5053804;28;20222;-72
2022/05/13 06:03:42;;;;;;;5.82;3.65;;;15.50;99.90;;;;;;5053137;28;20202;-73
2022/05/13 06:06:09;;;;;;;6.60;3.85;;;15.70;99.90;;;;;;5053856;28;20205;-72
2022/05/13 06:08:35;;;;;;;7.38;3.97;;;16.00;99.90;;;;;;5052883;28;20179;-72
2022/05/13 06:11:01;;;;;;;10.15;4.15;;;16.20;99.50;;;;;;5052712;28;20178;-74
2022/05/13 06:13:27;;;;;;;12.38;4.38;;;16.30;99.30;;;;;;5052845;28;20205;-72
2022/05/13 06:15:53;;;;;;;7.90;4.20;;;16.30;99.20;;;;;;5052388;28;20305;-71
2022/05/13 06:18:18;;;;;;;8.45;4.00;;;16.30;98.40;;;;;;5052586;28;20289;-71
2022/05/13 06:20:44;;;;;;;12.85;4.18;;;16.30;98.40;;;;;;5052155;28;20273;-72
2022/05/13 06:23:10;;;;;;;14.13;4.30;;;16.20;99.10;;;;;;5052438;28;20677;-72
2022/05/13 06:25:36;;;;;;;24.55;4.60;;;16.20;99.90;;;;;;5053602;28;20708;-72
2022/05/13 06:28:02;;;;;;;10.45;3.95;;;16.20;99.00;;;;;;5053097;28;20554;-72
2022/05/13 06:30:33;;;;;;;17.17;4.57;;;16.20;98.30;;;;;;5052247;28;20194;-72
2022/05/13 06:33:00;;;;;;;9.85;4.00;;;16.20;97.40;;;;;;5052153;28;20170;-72
2022/05/13 06:35:29;;;;;;;7.60;4.30;;;16.30;95.90;;;;;;5053455;28;20181;-72
2022/05/13 06:37:54;;;;;;;10.15;4.20;;;16.30;96.70;;;;;;5052063;28;20227;-73
2022/05/13 06:40:24;;;;;;;4.80;3.88;;;16.40;96.30;;;;;;5052335;28;20174;-72
2022/05/13 06:42:51;;;;;;;4.32;3.60;;;16.30;95.20;;;;;;5053539;28;20296;-72
2022/05/13 06:45:17;;;;;;;8.45;3.75;;;16.30;95.30;;;;;;5051938;28;20185;-72
2022/05/13 06:47:43;;;;;;;6.25;3.60;;;16.40;95.90;;;;;;5051162;28;20279;-72
2022/05/13 06:50:11;;;;;;;5.35;3.75;;;16.50;95.90;;;;;;5053079;28;20208;-71
2022/05/13 06:52:37;;;;;;;7.93;3.40;;;16.60;95.90;;;;;;5052216;28;20185;-72
2022/05/13 06:55:04;;;;;;;4.65;3.55;;;16.70;95.20;;;;;;5051886;28;20178;-73
2022/05/13 06:57:30;;;;;;;5.70;3.70;;;16.70;94.50;;;;;;5052171;28;20220;-72
2022/05/13 06:59:56;;;;;;;6.30;3.40;;;16.90;94.40;;;;;;5053090;28;20185;-71
2022/05/13 07:02:23;;;;;;;6.78;3.28;;;17.00;94.70;;;;;;5053349;28;20178;-72
2022/05/13 07:04:50;;;;;;;7.93;3.72;;;17.20;94.20;;;;;;5052805;28;20210;-72
2022/05/13 07:07:15;;;;;;;11.75;3.50;;;17.50;93.40;;;;;;5052148;28;20198;-71
2022/05/13 07:09:41;;;;;;;10.43;3.20;;;17.70;92.90;;;;;;5052259;28;20660;-71
2022/05/13 07:12:08;;;;;;;12.75;3.60;;;17.90;90.50;;;;;;5052248;28;20178;-73
2022/05/13 07:14:35;;;;;;;11.55;2.75;;;18.40;86.70;;;;;;5051441;28;20196;-72
2022/05/13 07:17:04;;;;;;;7.93;2.50;;;18.80;81.70;;;;;;5052766;28;20280;-73
2022/05/13 07:19:30;;;;;;;4.35;2.60;;;19.20;77.80;;;;;;5052475;28;20217;-73
2022/05/13 07:21:56;;;;;;;7.82;2.75;;;19.50;75.00;;;;;;5051989;28;20276;-72
2022/05/13 07:24:21;;;;;;;9.80;2.47;;;19.70;74.70;;;;;;5052206;28;20680;-72
2022/05/13 07:26:49;;;;;;;5.90;2.40;;;19.70;70.30;;;;;;5051539;28;20232;-72
2022/05/13 07:29:15;;;;;;;4.47;2.20;;;19.80;72.00;;;;;;5051774;28;20174;-73
2022/05/13 07:31:40;;;;;;;8.68;2.50;;;19.80;70.70;;;;;;5051803;28;20551;-73
2022/05/13 07:34:07;;;;;;;5.68;1.95;;;20.00;71.30;;;;;;5052025;28;20178;-72
2022/05/13 07:36:33;;;;;;;4.70;2.10;;;20.10;67.80;;;;;;5051684;28;20312;-72
2022/05/13 07:41:43;;;;;;;5.72;2.00;;;20.30;65.30;;;;;;5052768;28;20182;-72
2022/05/13 07:44:09;;;;;;;7.65;2.10;;;20.40;63.90;;;;;;5051427;28;20206;-73
2022/05/13 07:46:35;;;;;;;9.57;2.25;;;20.30;62.90;;;;;;5052540;28;20190;-72
2022/05/13 07:49:01;;;;;;;5.85;1.80;;;20.00;60.90;;;;;;5051765;28;20276;-72
2022/05/13 07:51:26;;;;;;;9.65;2.20;;;19.70;61.30;;;;;;5051774;28;20181;-71
2022/05/13 07:53:53;;;;;;;5.43;2.05;;;19.80;60.90;;;;;;5053188;28;20178;-72
2022/05/13 07:56:19;;;;;;;6.50;1.80;;;19.60;61.00;;;;;;5051833;28;20201;-72
2022/05/13 07:58:45;;;;;;;6.63;2.05;;;19.50;60.70;;;;;;5051649;28;20209;-72
2022/05/13 08:01:11;;;;;;;4.68;2.00;;;19.10;60.80;;;;;;5055555;28;20224;-72
2022/05/13 08:03:36;;;;;;;5.13;1.90;;;19.00;61.00;;;;;;5056341;28;20198;-71
2022/05/13 08:06:03;;;;;;;5.30;1.90;;;19.10;63.20;;;;;;5055993;28;20194;-72
2022/05/13 08:08:39;;;;;;;5.63;1.83;;;18.90;61.90;;;;;;5054862;28;20174;-72
2022/05/13 08:11:08;;;;;;;8.45;2.05;;;19.10;61.80;;;;;;5056063;28;20165;-73
2022/05/13 08:13:34;;;;;;;6.57;1.60;;;19.30;60.70;;;;;;5055898;28;20637;-72
2022/05/13 08:16:12;;;;;;;6.03;1.80;;;19.20;58.70;;;;;;5055601;28;20194;-72
2022/05/13 08:18:39;;;;;;;11.98;2.20;;;19.00;59.70;;;;;;5054478;28;20198;-72
2022/05/13 08:21:05;;;;;;;4.93;2.20;;;19.00;61.40;;;;;;5055871;28;20174;-72
2022/05/13 08:23:31;;;;;;;7.43;2.30;;;18.90;60.90;;;;;;5055209;28;20213;-72
2022/05/13 08:25:56;;;;;;;15.93;2.05;;;18.70;62.50;;;;;;5055728;28;20209;-72
2022/05/13 08:28:24;;;;;;;9.02;2.30;;;18.70;63.30;;;;;;5054964;28;20182;-73
2022/05/13 08:30:50;;;;;;;6.03;1.90;;;18.90;62.80;;;;;;5054278;28;20185;-73
2022/05/13 08:33:16;;;;;;;6.10;1.88;;;19.00;62.80;;;;;;5054530;28;20213;-73
2022/05/13 08:35:47;;;;;;;5.35;1.88;;;19.10;63.50;;;;;;5054080;28;20261;-72
2022/05/13 08:38:15;;;;;;;9.38;2.10;;;19.20;61.60;;;;;;5054223;28;20163;-73
2022/05/13 08:40:52;;;;;;;15.50;2.10;;;19.10;60.30;;;;;;5054059;28;20190;-72
2022/05/13 08:43:27;;;;;;;6.53;2.22;;;18.90;60.40;;;;;;5055564;28;20681;-73
2022/05/13 08:46:01;;;;;;;5.75;2.30;;;19.00;61.10;;;;;;5055382;28;20245;-72
2022/05/13 08:48:47;;;;;;;9.05;2.22;;;19.10;60.90;;;;;;5054491;28;20223;-72
2022/05/13 08:51:14;;;;;;;3.80;1.90;;;19.50;60.90;;;;;;5053981;28;20186;-72
2022/05/13 08:54:00;;;;;;;6.43;2.28;;;19.70;59.90;;;;;;5055180;28;20194;-73
2022/05/13 08:56:28;;;;;;;7.18;2.35;;;19.90;59.40;;;;;;5054154;28;20206;-72
2022/05/13 08:59:21;;;;;;;10.63;2.20;;;19.70;59.00;;;;;;5054682;28;20193;-72
2022/05/13 09:01:51;;;;;;;4.22;1.98;;;19.30;59.30;;;;;;5055900;28;20182;-72
2022/05/13 09:04:31;;;;;;;3.95;2.00;;;19.40;59.80;;;;;;5054293;28;20198;-73
2022/05/13 09:07:02;;;;;;;7.15;2.10;;;19.40;62.00;;;;;;5053988;28;20273;-73
2022/05/13 09:09:28;;;;;;;12.60;2.17;;;19.40;58.80;;;;;;5051368;28;20269;-72
2022/05/13 09:12:31;;;;;;;11.85;2.38;;;19.20;59.10;;;;;;5051969;28;20193;-75
2022/05/13 09:15:23;;;;;;;3.95;1.90;;;19.00;58.90;;;;;;5053125;28;20200;-72
2022/05/13 09:18:09;;;;;;;4.35;1.90;;;19.20;59.20;;;;;;5051579;28;20202;-72
2022/05/13 09:20:50;;;;;;;7.25;1.88;;;19.40;58.90;;;;;;5051427;28;20162;-72
2022/05/13 09:23:16;;;;;;;3.70;1.60;;;19.60;59.00;;;;;;5051596;28;20218;-72
2022/05/13 09:25:58;;;;;;;4.00;1.77;;;19.70;58.70;;;;;;5051839;28;20194;-72
2022/05/13 09:28:26;;;;;;;6.90;1.83;;;19.70;56.80;;;;;;5053494;28;20185;-72
2022/05/13 09:30:59;;;;;;;5.13;1.90;;;19.80;57.70;;;;;;5053472;28;20174;-71
2022/05/13 09:33:36;;;;;;;3.42;1.63;;;20.00;56.30;;;;;;5054220;28;20170;-71
2022/05/13 09:36:09;;;;;;;6.10;1.80;;;20.10;56.30;;;;;;5054158;28;20285;-71
2022/05/13 09:38:43;;;;;;;19.67;2.15;;;19.90;55.50;;;;;;5053552;28;20182;-71
2022/05/13 09:41:12;;;;;;;13.88;1.90;;;19.70;56.40;;;;;;5054048;28;20268;-74
2022/05/13 09:43:52;;;;;;;6.88;2.28;;;19.80;56.00;;;;;;5053027;28;20202;-71
2022/05/13 09:46:22;;;;;;;8.57;1.90;;;20.10;56.40;;;;;;5053667;28;20559;-71
2022/05/13 09:48:57;;;;;;;4.65;1.70;;;20.30;56.40;;;;;;5052963;28;20170;-72
2022/05/13 09:51:28;;;;;;;5.43;1.75;;;20.40;56.40;;;;;;5054278;28;20211;-71
2022/05/13 09:54:05;;;;;;;4.70;1.58;;;20.40;55.20;;;;;;5052941;28;20232;-71
2022/05/13 09:56:54;;;;;;;16.30;2.45;;;20.60;54.70;;;;;;5054360;28;20221;-74
2022/05/13 09:59:24;;;;;;;9.00;1.98;;;20.30;55.10;;;;;;5054492;28;20162;-73
2022/05/13 10:01:51;;;;;;;4.93;1.70;;;20.00;55.40;;;;;;5053540;28;20189;-73
2022/05/13 10:04:25;;;;;;;7.20;1.98;;;19.40;56.00;;;;;;5053147;28;20205;-73
2022/05/13 10:07:03;;;;;;;10.55;1.75;;;18.80;56.90;;;;;;5053186;28;20247;-72
2022/05/13 10:15:42;;;;;;;7.30;1.80;;;18.90;57.20;;;;;;5045658;28;20197;-71
2022/05/13 10:18:26;;;;;;;4.50;1.40;;;19.20;56.60;;;;;;5052382;28;20198;-72
2022/05/13 10:20:55;;;;;;;6.53;1.52;;;19.40;55.20;;;;;;5053161;28;20170;-74
2022/05/13 10:23:39;;;;;;;8.30;1.70;;;19.60;54.20;;;;;;5051990;28;20205;-72
2022/05/13 10:26:15;;;;;;;7.50;1.75;;;19.70;53.30;;;;;;5053785;28;20194;-72
2022/05/13 10:29:04;;;;;;;5.20;1.60;;;19.60;54.00;;;;;;5032611;28;20202;-72
2022/05/13 10:31:34;;;;;;;5.47;1.63;;;19.70;52.60;;;;;;5034971;28;20174;-72
2022/05/13 10:34:12;;;;;;;3.67;1.33;;;19.80;53.10;;;;;;5052282;28;20188;-71
2022/05/13 10:36:56;;;;;;;2.75;1.30;;;20.00;53.80;;;;;;5052189;28;20197;-72
2022/05/13 10:39:36;;;;;;;11.25;2.00;;;20.20;52.70;;;;;;5052757;28;20182;-72
2022/05/13 10:42:25;;;;;;;10.85;1.88;;;20.30;52.70;;;;;;5052514;28;20173;-71
2022/05/13 10:45:15;;;;;;;8.77;1.88;;;20.10;51.90;;;;;;5053254;28;20202;-71
2022/05/13 10:47:45;;;;;;;10.25;1.52;;;19.70;51.60;;;;;;5052388;28;20198;-71
